createdAt,value
2018-05-25T00:00:04.719Z,97.10
2018-05-25T00:02:31.016Z,97.00
2018-05-25T00:04:57.341Z,96.90
2018-05-25T00:07:23.730Z,97.10
2018-05-25T00:09:50.032Z,97.00
2018-05-25T00:12:16.399Z,97.20
2018-05-25T00:14:42.709Z,96.80
2018-05-25T00:17:09.027Z,97.10
2018-05-25T00:19:35.318Z,97.20
2018-05-25T00:22:01.639Z,97.40
2018-05-25T00:24:27.905Z,97.30
2018-05-25T00:26:54.206Z,97.40
2018-05-25T00:29:20.477Z,97.50
2018-05-25T00:31:46.789Z,97.30
2018-05-25T00:34:13.093Z,97.40
2018-05-25T00:36:39.349Z,95.70
2018-05-25T00:39:05.676Z,96.50
2018-05-25T00:41:31.951Z,95.70
2018-05-25T00:43:58.218Z,96.80
2018-05-25T00:46:24.494Z,97.10
2018-05-25T00:48:50.797Z,97.30
2018-05-25T00:51:17.817Z,97.20
2018-05-25T00:53:44.098Z,97.20
2018-05-25T00:56:10.376Z,97.50
2018-05-25T00:58:36.662Z,97.20
2018-05-25T01:01:03.686Z,97.50
2018-05-25T01:03:29.994Z,97.50
2018-05-25T01:05:56.234Z,97.60
2018-05-25T01:08:22.577Z,97.70
2018-05-25T01:10:48.901Z,97.60
2018-05-25T01:13:15.185Z,97.70
2018-05-25T01:15:42.212Z,97.60
2018-05-25T01:18:08.486Z,97.60
2018-05-25T01:20:34.791Z,97.60
2018-05-25T01:23:01.035Z,98.00
2018-05-25T01:25:28.112Z,97.90
2018-05-25T01:27:54.413Z,97.90
2018-05-25T01:30:20.729Z,97.50
2018-05-25T01:32:47.065Z,97.90
2018-05-25T01:35:13.388Z,97.90
2018-05-25T01:37:39.650Z,97.90
2018-05-25T01:40:05.928Z,97.60
2018-05-25T01:42:32.956Z,98.10
2018-05-25T01:45:00.038Z,98.10
2018-05-25T01:47:26.325Z,98.10
2018-05-25T01:49:52.661Z,98.10
2018-05-25T01:52:18.971Z,97.90
2018-05-25T01:54:45.277Z,98.00
2018-05-25T01:57:11.587Z,97.90
2018-05-25T01:59:37.878Z,98.10
2018-05-25T02:02:04.173Z,98.20
2018-05-25T02:04:31.186Z,98.10
2018-05-25T02:06:57.486Z,98.10
2018-05-25T02:09:23.800Z,98.30
2018-05-25T02:11:50.860Z,98.20
2018-05-25T02:14:17.154Z,98.20
2018-05-25T02:16:43.565Z,98.20
2018-05-25T02:19:09.825Z,98.20
2018-05-25T02:21:36.157Z,98.40
2018-05-25T02:24:02.470Z,98.30
2018-05-25T02:26:28.742Z,98.40
2018-05-25T02:28:55.079Z,98.30
2018-05-25T02:31:23.143Z,98.50
2018-05-25T02:33:49.437Z,98.60
2018-05-25T02:36:15.777Z,98.50
2018-05-25T02:38:42.114Z,98.60
2018-05-25T02:41:08.368Z,98.70
2018-05-25T02:43:34.644Z,98.50
2018-05-25T02:46:00.986Z,98.60
2018-05-25T02:48:27.282Z,98.60
2018-05-25T02:50:53.599Z,98.80
2018-05-25T02:53:20.051Z,98.70
2018-05-25T02:55:46.388Z,98.80
2018-05-25T02:58:12.619Z,98.70
2018-05-25T03:00:38.937Z,98.70
2018-05-25T03:03:05.975Z,98.60
2018-05-25T03:05:33.028Z,98.80
2018-05-25T03:08:00.049Z,98.10
2018-05-25T03:10:26.314Z,98.10
2018-05-25T03:12:53.329Z,99.00
2018-05-25T03:15:19.662Z,98.70
2018-05-25T03:17:45.929Z,98.60
2018-05-25T03:20:13.056Z,98.80
2018-05-25T03:22:39.582Z,98.80
2018-05-25T03:25:05.944Z,98.70
2018-05-25T03:27:32.271Z,98.70
2018-05-25T03:29:58.524Z,98.40
2018-05-25T03:32:24.833Z,98.50
2018-05-25T03:34:51.145Z,98.60
2018-05-25T03:37:17.453Z,98.30
2018-05-25T03:39:44.546Z,98.70
2018-05-25T03:42:10.834Z,98.30
2018-05-25T03:44:37.125Z,98.20
2018-05-25T03:47:03.493Z,98.40
2018-05-25T03:49:29.821Z,98.30
2018-05-25T03:51:56.131Z,98.30
2018-05-25T03:54:22.441Z,98.40
2018-05-25T03:56:49.461Z,98.30
2018-05-25T03:59:34.329Z,98.30
2018-05-25T04:02:00.617Z,98.20
2018-05-25T04:04:26.901Z,98.10
2018-05-25T04:06:54.091Z,98.10
2018-05-25T04:09:20.398Z,98.30
2018-05-25T04:11:47.446Z,98.10
2018-05-25T04:14:13.848Z,98.10
2018-05-25T04:16:40.843Z,98.10
2018-05-25T04:19:07.101Z,98.10
2018-05-25T04:21:34.181Z,98.00
2018-05-25T04:24:00.446Z,98.00
2018-05-25T04:26:26.814Z,97.90
2018-05-25T04:28:53.172Z,97.60
2018-05-25T04:31:20.238Z,97.80
2018-05-25T04:33:46.518Z,97.70
2018-05-25T04:36:12.797Z,97.90
2018-05-25T04:38:39.085Z,97.90
2018-05-25T04:41:05.375Z,97.90
2018-05-25T04:43:31.715Z,97.50
2018-05-25T04:45:58.777Z,97.00
2018-05-25T04:48:25.062Z,97.00
2018-05-25T04:50:51.391Z,97.30
2018-05-25T04:53:17.719Z,97.00
2018-05-25T04:55:44.053Z,97.20
2018-05-25T04:58:10.341Z,97.00
2018-05-25T05:00:36.639Z,96.90
2018-05-25T05:03:03.017Z,96.70
2018-05-25T05:05:30.090Z,96.90
2018-05-25T05:07:56.365Z,96.90
2018-05-25T05:10:22.725Z,96.90
2018-05-25T05:12:49.825Z,96.20
2018-05-25T05:15:16.157Z,96.20
2018-05-25T05:17:42.445Z,96.20
2018-05-25T05:20:08.789Z,96.30
2018-05-25T05:22:35.806Z,95.50
2018-05-25T05:25:02.148Z,95.40
2018-05-25T05:27:28.495Z,95.80
2018-05-25T05:29:54.845Z,95.60
2018-05-25T05:32:21.917Z,95.60
2018-05-25T05:34:49.015Z,95.50
2018-05-25T05:37:15.348Z,95.50
2018-05-25T05:39:41.622Z,95.20
2018-05-25T05:42:07.932Z,95.40
2018-05-25T05:44:34.249Z,95.60
2018-05-25T05:47:00.588Z,95.50
2018-05-25T05:49:26.905Z,95.40
2018-05-25T05:51:53.251Z,95.70
2018-05-25T05:54:19.553Z,95.10
2018-05-25T05:56:46.593Z,95.00
2018-05-25T05:59:12.949Z,94.60
2018-05-25T06:01:39.946Z,94.20
2018-05-25T06:04:06.286Z,94.20
2018-05-25T06:06:32.661Z,94.20
2018-05-25T06:08:58.909Z,93.10
2018-05-25T06:11:25.922Z,93.50
2018-05-25T06:13:52.351Z,93.40
2018-05-25T06:16:18.641Z,93.30
2018-05-25T06:18:45.847Z,93.30
2018-05-25T06:21:12.090Z,93.20
2018-05-25T06:23:38.377Z,93.10
2018-05-25T06:26:05.474Z,92.50
2018-05-25T06:28:31.836Z,92.50
2018-05-25T06:30:58.141Z,92.50
2018-05-25T06:33:24.446Z,92.10
2018-05-25T06:35:50.757Z,91.80
2018-05-25T06:38:17.833Z,91.40
2018-05-25T06:40:44.909Z,91.50
2018-05-25T06:43:11.196Z,91.50
2018-05-25T06:45:37.607Z,91.20
2018-05-25T06:48:03.884Z,91.30
2018-05-25T06:50:30.956Z,91.20
2018-05-25T06:52:57.237Z,91.20
2018-05-25T06:55:23.576Z,90.70
2018-05-25T06:57:49.875Z,90.60
2018-05-25T07:00:16.158Z,90.50
2018-05-25T07:02:42.477Z,90.20
2018-05-25T07:05:08.788Z,90.50
2018-05-25T07:07:35.074Z,90.80
2018-05-25T07:10:01.403Z,90.40
2018-05-25T07:12:27.711Z,90.50
2018-05-25T07:14:54.017Z,90.00
2018-05-25T07:17:20.308Z,90.00
2018-05-25T07:19:46.817Z,89.70
2018-05-25T07:22:13.108Z,88.70
2018-05-25T07:24:40.140Z,88.60
2018-05-25T07:27:06.502Z,88.50
2018-05-25T07:29:33.559Z,88.80
2018-05-25T07:32:00.598Z,88.20
2018-05-25T07:34:26.904Z,88.20
2018-05-25T07:36:53.193Z,88.10
2018-05-25T07:39:20.183Z,87.00
2018-05-25T07:41:46.548Z,87.00
2018-05-25T07:44:12.857Z,86.90
2018-05-25T07:46:39.170Z,87.10
2018-05-25T07:49:05.533Z,87.20
2018-05-25T07:51:31.809Z,87.00
2018-05-25T07:53:58.105Z,86.90
2018-05-25T07:56:24.476Z,87.40
2018-05-25T07:58:50.825Z,86.70
2018-05-25T08:01:17.893Z,86.40
2018-05-25T08:03:44.918Z,85.50
2018-05-25T08:06:11.226Z,85.40
2018-05-25T08:08:37.551Z,85.50
2018-05-25T08:11:03.827Z,85.40
2018-05-25T08:13:30.101Z,84.90
2018-05-25T08:15:57.125Z,85.00
2018-05-25T08:18:23.414Z,85.00
2018-05-25T08:20:50.476Z,83.60
2018-05-25T08:23:16.794Z,83.60
2018-05-25T08:25:43.094Z,83.00
2018-05-25T08:28:10.154Z,82.80
2018-05-25T08:30:36.638Z,82.70
2018-05-25T08:33:02.942Z,82.30
2018-05-25T08:35:29.279Z,82.70
2018-05-25T08:37:56.346Z,82.20
2018-05-25T08:40:22.650Z,82.10
2018-05-25T08:42:49.851Z,82.50
2018-05-25T08:45:16.137Z,81.50
2018-05-25T08:47:42.492Z,81.80
2018-05-25T08:50:08.809Z,81.30
2018-05-25T08:52:35.106Z,81.70
2018-05-25T08:55:01.468Z,81.70
2018-05-25T08:57:27.764Z,80.60
2018-05-25T08:59:54.125Z,80.10
2018-05-25T09:02:20.350Z,81.10
2018-05-25T09:04:46.678Z,81.50
2018-05-25T09:07:12.990Z,80.00
2018-05-25T09:09:39.270Z,80.30
2018-05-25T09:12:05.565Z,80.30
2018-05-25T09:14:31.840Z,81.30
2018-05-25T09:16:58.105Z,81.30
2018-05-25T09:19:24.397Z,79.70
2018-05-25T09:21:50.824Z,78.80
2018-05-25T09:24:16.969Z,77.70
2018-05-25T09:26:43.238Z,77.00
2018-05-25T09:29:09.568Z,76.60
2018-05-25T09:31:35.834Z,76.40
2018-05-25T09:34:02.892Z,76.80
2018-05-25T09:36:29.983Z,76.10
2018-05-25T09:38:56.293Z,75.90
2018-05-25T09:41:23.355Z,73.90
2018-05-25T09:43:49.701Z,73.90
2018-05-25T09:46:15.987Z,73.70
2018-05-25T09:48:42.365Z,75.00
2018-05-25T09:51:08.622Z,73.50
2018-05-25T09:53:34.962Z,74.50
2018-05-25T09:56:01.367Z,72.90
2018-05-25T09:58:27.656Z,69.30
2018-05-25T10:00:53.984Z,68.60
2018-05-25T10:03:20.313Z,68.30
2018-05-25T10:05:46.577Z,69.30
2018-05-25T10:08:12.902Z,69.30
2018-05-25T10:10:39.206Z,69.60
2018-05-25T10:13:05.494Z,69.70
2018-05-25T10:15:31.790Z,67.60
2018-05-25T10:17:58.130Z,67.70
2018-05-25T10:20:25.069Z,66.30
2018-05-25T10:22:51.329Z,66.30
2018-05-25T10:25:17.641Z,65.10
2018-05-25T10:27:43.894Z,63.20
2018-05-25T10:30:10.249Z,57.90
2018-05-25T10:32:36.539Z,56.90
2018-05-25T10:35:02.828Z,56.20
2018-05-25T10:37:29.082Z,54.20
2018-05-25T10:39:56.138Z,51.60
2018-05-25T10:42:22.410Z,51.50
2018-05-25T10:44:48.710Z,49.20
2018-05-25T10:47:15.778Z,50.00
2018-05-25T10:49:42.809Z,49.60
2018-05-25T10:52:09.797Z,49.90
2018-05-25T10:54:36.122Z,49.90
2018-05-25T10:57:03.126Z,49.10
2018-05-25T10:59:29.433Z,49.10
2018-05-25T11:01:55.691Z,47.30
2018-05-25T11:04:21.931Z,47.70
2018-05-25T11:06:48.262Z,45.30
2018-05-25T11:09:14.501Z,45.30
2018-05-25T11:11:40.779Z,45.20
2018-05-25T11:14:07.801Z,45.80
2018-05-25T11:16:34.042Z,45.70
2018-05-25T11:19:00.532Z,44.90
2018-05-25T11:21:26.837Z,45.70
2018-05-25T11:23:53.830Z,44.00
2018-05-25T11:26:20.109Z,43.90
2018-05-25T11:28:46.602Z,43.70
2018-05-25T11:31:12.865Z,41.20
2018-05-25T11:33:39.230Z,40.20
2018-05-25T11:36:05.510Z,42.40
2018-05-25T11:38:31.777Z,42.30
2018-05-25T11:40:58.063Z,42.70
2018-05-25T11:43:25.096Z,40.70
2018-05-25T11:45:52.083Z,41.00
2018-05-25T11:48:18.345Z,40.90
2018-05-25T11:50:44.596Z,42.10
2018-05-25T11:53:10.866Z,42.10
2018-05-25T11:55:37.956Z,40.20
2018-05-25T11:58:04.243Z,40.10
2018-05-25T12:00:31.591Z,39.60
2018-05-25T12:03:00.060Z,39.90
2018-05-25T12:05:26.345Z,38.40
2018-05-25T12:07:52.629Z,38.40
2018-05-25T12:10:18.901Z,38.90
2018-05-25T12:12:45.899Z,38.80
2018-05-25T12:15:12.216Z,38.70
2018-05-25T12:17:38.542Z,40.70
2018-05-25T12:20:04.863Z,40.10
2018-05-25T12:22:31.884Z,40.00
2018-05-25T12:24:58.187Z,39.90
2018-05-25T12:27:24.482Z,39.30
2018-05-25T12:29:51.553Z,38.20
2018-05-25T12:32:18.851Z,38.80
2018-05-25T12:34:45.905Z,39.60
2018-05-25T12:37:16.968Z,39.60
2018-05-25T12:39:43.298Z,39.30
2018-05-25T12:42:09.577Z,38.30
2018-05-25T12:44:55.202Z,35.90
2018-05-25T12:47:21.514Z,35.90
2018-05-25T12:49:47.803Z,36.30
2018-05-25T12:52:14.095Z,36.00
2018-05-25T12:54:40.457Z,35.50
2018-05-25T12:57:06.729Z,35.10
2018-05-25T12:59:33.780Z,37.70
2018-05-25T13:02:00.789Z,35.10
2018-05-25T13:04:27.130Z,35.00
2018-05-25T13:06:53.415Z,36.20
2018-05-25T13:09:20.435Z,35.20
2018-05-25T13:11:46.757Z,35.10
2018-05-25T13:14:12.982Z,35.00
2018-05-25T13:16:39.241Z,34.30
2018-05-25T13:19:05.510Z,33.30
2018-05-25T13:21:32.505Z,34.30
2018-05-25T13:23:58.865Z,34.30
2018-05-25T13:26:25.136Z,36.80
2018-05-25T13:28:52.128Z,38.80
2018-05-25T13:31:18.514Z,38.80
2018-05-25T13:33:44.760Z,42.20
2018-05-25T13:36:11.805Z,42.50
2018-05-25T13:38:38.843Z,40.50
2018-05-25T13:41:05.141Z,40.40
2018-05-25T13:43:31.393Z,42.40
2018-05-25T13:45:57.673Z,43.90
2018-05-25T13:48:24.678Z,46.00
2018-05-25T13:50:51.007Z,46.00
2018-05-25T13:53:17.278Z,45.40
2018-05-25T13:55:43.586Z,46.40
2018-05-25T13:58:10.111Z,45.90
2018-05-25T14:00:36.341Z,46.10
2018-05-25T14:03:02.673Z,47.70
2018-05-25T14:05:29.005Z,48.60
2018-05-25T14:07:55.309Z,48.60
2018-05-25T14:10:22.302Z,49.90
2018-05-25T14:12:48.655Z,49.90
2018-05-25T14:15:14.928Z,49.70
2018-05-25T14:17:41.985Z,51.70
2018-05-25T14:20:09.074Z,51.70
2018-05-25T14:22:35.370Z,51.30
2018-05-25T14:25:01.635Z,51.30
2018-05-25T14:27:27.906Z,51.30
2018-05-25T14:29:54.241Z,53.30
2018-05-25T14:32:20.529Z,53.20
2018-05-25T14:34:47.566Z,52.90
2018-05-25T14:37:13.872Z,52.90
2018-05-25T14:39:40.290Z,52.80
2018-05-25T14:42:06.567Z,52.50
2018-05-25T14:44:32.848Z,53.00
2018-05-25T14:46:59.109Z,53.20
2018-05-25T14:49:25.501Z,53.40
2018-05-25T14:51:51.758Z,53.20
2018-05-25T14:54:18.058Z,52.90
2018-05-25T14:56:44.442Z,52.50
2018-05-25T14:59:10.724Z,52.50
2018-05-25T15:01:37.019Z,51.90
2018-05-25T15:04:03.319Z,50.50
2018-05-25T15:06:30.352Z,48.90
2018-05-25T15:08:56.614Z,48.80
2018-05-25T15:11:23.621Z,49.60
2018-05-25T15:13:49.909Z,49.60
2018-05-25T15:16:16.241Z,49.50
2018-05-25T15:18:43.268Z,50.30
2018-05-25T15:21:10.312Z,47.90
2018-05-25T15:23:36.571Z,47.80
2018-05-25T15:26:02.874Z,47.10
2018-05-25T15:28:29.202Z,48.60
2018-05-25T15:30:55.669Z,49.20
2018-05-25T15:33:21.785Z,49.50
2018-05-25T15:35:48.090Z,49.90
2018-05-25T15:38:14.365Z,49.80
2018-05-25T15:40:40.665Z,50.30
2018-05-25T15:43:06.997Z,49.20
2018-05-25T15:45:33.249Z,49.90
2018-05-25T15:47:59.722Z,50.50
2018-05-25T15:50:26.170Z,50.90
2018-05-25T15:52:53.516Z,50.80
2018-05-25T15:55:21.141Z,51.40
2018-05-25T15:57:47.449Z,50.60
2018-05-25T16:00:14.445Z,50.10
2018-05-25T16:02:40.759Z,50.00
2018-05-25T16:05:07.196Z,51.40
2018-05-25T16:07:33.582Z,52.30
2018-05-25T16:09:59.844Z,51.30
2018-05-25T16:12:26.131Z,51.90
2018-05-25T16:14:52.381Z,50.30
2018-05-25T16:17:18.725Z,51.00
2018-05-25T16:19:45.029Z,51.00
2018-05-25T16:22:11.386Z,51.80
2018-05-25T16:24:37.888Z,52.30
2018-05-25T16:27:04.400Z,52.10
2018-05-25T16:29:31.498Z,52.20
2018-05-25T16:31:57.809Z,52.30
2018-05-25T16:34:24.162Z,52.90
2018-05-25T16:36:50.489Z,52.30
2018-05-25T16:39:16.766Z,53.10
2018-05-25T16:41:43.085Z,52.40
2018-05-25T16:44:10.164Z,52.90
2018-05-25T16:46:36.451Z,53.00
2018-05-25T16:49:10.236Z,52.10
2018-05-25T16:51:37.455Z,53.00
2018-05-25T16:54:03.733Z,53.40
2018-05-25T16:56:30.906Z,53.00
2018-05-25T16:58:57.213Z,53.00
2018-05-25T17:01:23.497Z,53.60
2018-05-25T17:03:49.805Z,53.70
2018-05-25T17:06:16.857Z,54.30
2018-05-25T17:08:43.937Z,54.90
2018-05-25T17:11:10.255Z,54.80
2018-05-25T17:13:36.635Z,54.50
2018-05-25T17:16:02.947Z,55.10
2018-05-25T17:18:29.265Z,55.70
2018-05-25T17:20:55.597Z,55.80
2018-05-25T17:23:21.947Z,56.10
2018-05-25T17:25:48.222Z,55.90
2018-05-25T17:28:14.550Z,55.90
2018-05-25T17:30:40.820Z,55.60
2018-05-25T17:33:07.069Z,55.90
2018-05-25T17:35:34.161Z,55.30
2018-05-25T17:38:00.427Z,55.30
2018-05-25T17:40:26.723Z,55.30
2018-05-25T17:42:53.148Z,55.10
2018-05-25T17:45:19.414Z,55.70
2018-05-25T17:47:45.684Z,55.90
2018-05-25T17:50:12.003Z,56.70
2018-05-25T17:52:38.300Z,56.70
2018-05-25T17:55:04.645Z,57.20
2018-05-25T17:57:30.958Z,57.40
2018-05-25T17:59:57.277Z,58.40
2018-05-25T18:02:24.320Z,59.10
2018-05-25T18:04:50.627Z,59.10
2018-05-25T18:07:16.888Z,59.90
2018-05-25T18:09:43.166Z,59.90
2018-05-25T18:12:09.447Z,60.10
2018-05-25T18:14:35.694Z,59.90
2018-05-25T18:17:02.023Z,60.00
2018-05-25T18:19:28.355Z,60.10
2018-05-25T18:21:54.618Z,60.50
2018-05-25T18:24:20.969Z,60.80
2018-05-25T18:26:47.316Z,62.00
2018-05-25T18:29:13.647Z,62.40
2018-05-25T18:31:39.946Z,62.80
2018-05-25T18:34:06.287Z,63.40
2018-05-25T18:36:32.578Z,64.00
2018-05-25T18:38:58.866Z,64.40
2018-05-25T18:41:25.267Z,64.80
2018-05-25T18:43:51.561Z,66.00
2018-05-25T18:46:18.626Z,66.40
2018-05-25T18:48:44.986Z,66.30
2018-05-25T18:51:11.280Z,66.90
2018-05-25T18:53:37.651Z,67.00
2018-05-25T18:56:03.998Z,67.30
2018-05-25T18:58:30.318Z,67.40
2018-05-25T19:00:56.618Z,67.40
2018-05-25T19:03:23.645Z,68.00
2018-05-25T19:05:49.979Z,67.90
2018-05-25T19:08:16.265Z,68.40
2018-05-25T19:10:42.565Z,68.60
2018-05-25T19:13:08.858Z,69.20
2018-05-25T19:15:35.165Z,69.50
2018-05-25T19:18:02.287Z,69.30
2018-05-25T19:20:28.674Z,69.30
2018-05-25T19:22:54.998Z,69.70
2018-05-25T19:25:22.069Z,69.50
2018-05-25T19:27:49.226Z,69.50
2018-05-25T19:30:15.567Z,69.50
2018-05-25T19:32:41.878Z,69.90
2018-05-25T19:35:08.939Z,71.10
2018-05-25T19:37:35.233Z,71.10
2018-05-25T19:40:01.624Z,71.50
2018-05-25T19:42:27.938Z,71.90
2018-05-25T19:44:54.966Z,72.40
2018-05-25T19:47:21.257Z,72.20
2018-05-25T19:49:47.525Z,72.50
2018-05-25T19:52:13.829Z,73.20
2018-05-25T19:54:40.140Z,73.80
2018-05-25T19:57:07.379Z,73.60
2018-05-25T19:59:34.645Z,73.40
2018-05-25T20:02:01.700Z,74.50
2018-05-25T20:04:28.686Z,75.30
2018-05-25T20:06:55.002Z,76.00
2018-05-25T20:09:21.386Z,75.20
2018-05-25T20:11:47.707Z,75.20
2018-05-25T20:14:14.022Z,75.40
2018-05-25T20:16:40.281Z,76.10
2018-05-25T20:19:06.604Z,76.90
2018-05-25T20:21:32.935Z,76.90
2018-05-25T20:23:59.171Z,78.00
2018-05-25T20:26:25.405Z,77.90
2018-05-25T20:28:51.701Z,77.90
2018-05-25T20:31:17.989Z,79.10
2018-05-25T20:33:44.302Z,80.00
2018-05-25T20:36:13.600Z,79.70
2018-05-25T20:38:40.705Z,79.80
2018-05-25T20:41:07.008Z,79.80
2018-05-25T20:43:33.286Z,80.10
2018-05-25T20:45:59.570Z,80.60
2018-05-25T20:48:25.888Z,80.80
2018-05-25T20:50:52.250Z,81.20
2018-05-25T20:53:18.546Z,80.70
2018-05-25T20:55:44.805Z,80.90
2018-05-25T20:58:11.902Z,82.20
2018-05-25T21:00:38.194Z,82.20
2018-05-25T21:03:05.290Z,82.80
2018-05-25T21:05:31.623Z,82.80
2018-05-25T21:07:58.000Z,83.00
2018-05-25T21:10:24.270Z,82.90
2018-05-25T21:12:50.587Z,82.90
2018-05-25T21:15:17.657Z,83.00
2018-05-25T21:17:44.023Z,82.90
2018-05-25T21:20:10.350Z,83.30
2018-05-25T21:22:36.618Z,83.60
2018-05-25T21:25:02.944Z,84.00
2018-05-25T21:27:30.342Z,83.80
2018-05-25T21:29:56.643Z,84.90
2018-05-25T21:32:22.935Z,85.30
2018-05-25T21:34:50.841Z,85.80
2018-05-25T21:37:21.387Z,85.80
2018-05-25T21:39:51.867Z,86.00
2018-05-25T21:42:18.286Z,86.00
2018-05-25T21:44:46.141Z,85.10
2018-05-25T21:47:12.965Z,85.60
2018-05-25T21:49:42.043Z,85.30
2018-05-25T21:52:08.705Z,87.00
2018-05-25T21:54:34.998Z,87.50
2018-05-25T21:57:02.045Z,87.60
2018-05-25T21:59:28.317Z,87.60
2018-05-25T22:01:54.638Z,87.80
2018-05-25T22:04:20.897Z,88.00
2018-05-25T22:06:47.185Z,87.90
2018-05-25T22:09:13.489Z,88.10
2018-05-25T22:11:39.777Z,88.90
2018-05-25T22:14:06.118Z,88.50
2018-05-25T22:16:32.501Z,88.70
2018-05-25T22:18:58.808Z,89.00
2018-05-25T22:21:25.136Z,89.70
2018-05-25T22:23:51.410Z,89.40
2018-05-25T22:26:17.681Z,89.60
2018-05-25T22:28:44.759Z,90.00
2018-05-25T22:31:11.045Z,90.00
2018-05-25T22:33:37.307Z,90.20
2018-05-25T22:36:04.355Z,90.40
2018-05-25T22:38:31.407Z,90.20
2018-05-25T22:40:58.464Z,90.30
2018-05-25T22:43:43.989Z,90.60
2018-05-25T22:46:28.721Z,90.60
2018-05-25T22:49:13.422Z,90.50
2018-05-25T22:51:58.054Z,90.60
2018-05-25T22:54:33.305Z,90.80
2018-05-25T22:56:59.594Z,91.00
2018-05-25T22:59:26.611Z,91.10
2018-05-25T23:01:52.948Z,91.10
2018-05-25T23:04:20.756Z,91.50
2018-05-25T23:06:47.762Z,91.60
2018-05-25T23:09:14.058Z,91.60
2018-05-25T23:11:40.354Z,91.80
2018-05-25T23:14:06.616Z,91.60
2018-05-25T23:16:32.918Z,91.90
2018-05-25T23:18:59.993Z,92.00
2018-05-25T23:21:26.254Z,92.00
2018-05-25T23:23:52.585Z,92.10
2018-05-25T23:26:18.886Z,92.20
2018-05-25T23:28:45.164Z,92.30
2018-05-25T23:31:11.432Z,92.50
2018-05-25T23:33:37.714Z,92.50
2018-05-25T23:36:04.723Z,92.50
2018-05-25T23:38:30.977Z,92.50
2018-05-25T23:40:57.292Z,92.70
2018-05-25T23:43:23.642Z,92.40
2018-05-25T23:45:49.902Z,92.60
2018-05-25T23:48:16.914Z,92.80
2018-05-25T23:50:43.241Z,92.80
2018-05-25T23:53:09.576Z,92.90
2018-05-25T23:55:35.929Z,93.10
2018-05-25T23:58:02.178Z,92.80
